createdAt,value
2023-01-20T00:01:46.767Z,100769.00
2023-01-20T00:04:19.159Z,100778.00
2023-01-20T00:06:47.938Z,100784.00
2023-01-20T00:09:19.229Z,100791.00
2023-01-20T00:11:49.264Z,100792.00
2023-01-20T00:14:18.079Z,100793.00
2023-01-20T00:16:46.712Z,100791.00
2023-01-20T00:19:16.304Z,100780.00
2023-01-20T00:21:45.371Z,100773.00
2023-01-20T00:24:14.042Z,100772.00
2023-01-20T00:26:42.698Z,100769.00
2023-01-20T00:29:12.830Z,100766.00
2023-01-20T00:31:41.455Z,100769.00
2023-01-20T00:34:12.537Z,100764.00
2023-01-20T00:36:41.162Z,100760.00
2023-01-20T00:44:31.776Z,100762.00
2023-01-20T00:47:00.398Z,100756.00
2023-01-20T00:49:29.000Z,100769.00
2023-01-20T00:51:57.648Z,100766.00
2023-01-20T00:54:26.355Z,100776.00
2023-01-20T00:56:55.052Z,100769.00
2023-01-20T00:59:23.840Z,100784.00
2023-01-20T01:01:53.927Z,100777.00
2023-01-20T01:04:22.755Z,100788.00
2023-01-20T01:06:52.113Z,100773.00
2023-01-20T01:09:21.840Z,100784.00
2023-01-20T01:11:51.133Z,100773.00
2023-01-20T01:14:19.831Z,100773.00
2023-01-20T01:16:48.407Z,100789.00
2023-01-20T01:19:19.764Z,100795.00
2023-01-20T01:21:48.427Z,100784.00
2023-01-20T01:24:17.041Z,100769.00
2023-01-20T01:26:45.688Z,100757.00
2023-01-20T01:29:14.365Z,100759.00
2023-01-20T01:31:43.036Z,100741.00
2023-01-20T01:34:11.667Z,100743.00
2023-01-20T01:36:41.628Z,100751.00
2023-01-20T01:39:10.521Z,100746.00
2023-01-20T01:41:39.202Z,100758.00
2023-01-20T01:44:11.272Z,100757.00
2023-01-20T01:46:40.966Z,100758.00
2023-01-20T01:49:15.934Z,100780.00
2023-01-20T01:51:52.411Z,100796.00
2023-01-20T01:54:25.831Z,100791.00
2023-01-20T01:56:55.136Z,100799.00
2023-01-20T01:59:24.105Z,100803.00
2023-01-20T02:01:54.923Z,100821.00
2023-01-20T02:04:26.940Z,100831.00
2023-01-20T02:07:01.576Z,100827.00
2023-01-20T02:09:31.896Z,100831.00
2023-01-20T02:12:05.546Z,100831.00
2023-01-20T02:14:41.468Z,100836.00
2023-01-20T02:17:20.478Z,100843.00
2023-01-20T02:20:28.342Z,100845.00
2023-01-20T02:23:08.223Z,100853.00
2023-01-20T02:26:18.404Z,100852.00
2023-01-20T02:29:25.742Z,100871.00
2023-01-20T02:32:27.315Z,100861.00
2023-01-20T02:35:01.960Z,100853.00
2023-01-20T02:37:45.189Z,100859.00
2023-01-20T02:40:27.561Z,100856.00
2023-01-20T02:43:08.774Z,100857.00
2023-01-20T02:45:46.427Z,100847.00
2023-01-20T02:48:26.282Z,100845.00
2023-01-20T02:51:07.728Z,100834.00
2023-01-20T02:53:44.901Z,100851.00
2023-01-20T02:56:15.188Z,100853.00
2023-01-20T02:58:51.548Z,100848.00
2023-01-20T03:01:28.159Z,100850.00
2023-01-20T03:04:03.155Z,100847.00
2023-01-20T03:06:38.063Z,100862.00
2023-01-20T03:09:12.058Z,100853.00
2023-01-20T03:11:47.109Z,100849.00
2023-01-20T03:14:17.170Z,100838.00
2023-01-20T03:16:48.301Z,100835.00
2023-01-20T03:19:20.789Z,100834.00
2023-01-20T03:21:49.948Z,100828.00
2023-01-20T03:24:18.736Z,100828.00
2023-01-20T03:26:47.852Z,100816.00
2023-01-20T03:29:18.388Z,100814.00
2023-01-20T03:31:52.249Z,100816.00
2023-01-20T03:34:27.020Z,100812.00
2023-01-20T03:36:57.725Z,100809.00
2023-01-20T03:39:27.600Z,100805.00
2023-01-20T03:42:08.383Z,100815.00
2023-01-20T03:44:58.681Z,100824.00
2023-01-20T03:47:45.763Z,100824.00
2023-01-20T03:50:35.937Z,100832.00
2023-01-20T03:53:15.407Z,100834.00
2023-01-20T03:55:50.370Z,100833.00
2023-01-20T03:58:27.484Z,100825.00
2023-01-20T04:00:58.101Z,100828.00
2023-01-20T04:03:32.127Z,100821.00
2023-01-20T04:06:06.790Z,100820.00
2023-01-20T04:08:41.139Z,100820.00
2023-01-20T04:11:10.512Z,100816.00
2023-01-20T04:13:39.291Z,100808.00
2023-01-20T04:16:14.666Z,100805.00
2023-01-20T04:18:45.384Z,100805.00
2023-01-20T04:21:23.757Z,100810.00
2023-01-20T04:23:59.085Z,100818.00
2023-01-20T04:26:27.782Z,100807.00
2023-01-20T04:28:56.391Z,100812.00
2023-01-20T04:31:30.788Z,100828.00
2023-01-20T04:34:01.402Z,100824.00
2023-01-20T04:36:31.601Z,100826.00
2023-01-20T04:39:00.328Z,100825.00
2023-01-20T04:41:29.096Z,100831.00
2023-01-20T04:43:58.066Z,100829.00
2023-01-20T04:46:27.674Z,100845.00
2023-01-20T04:48:57.270Z,100835.00
2023-01-20T04:51:26.079Z,100827.00
2023-01-20T04:53:59.937Z,100825.00
2023-01-20T04:56:28.641Z,100818.00
2023-01-20T04:58:57.374Z,100808.00
2023-01-20T05:01:26.672Z,100802.00
2023-01-20T05:03:55.393Z,100797.00
2023-01-20T05:06:24.118Z,100803.00
2023-01-20T05:08:52.748Z,100795.00
2023-01-20T05:11:22.852Z,100798.00
2023-01-20T05:13:51.568Z,100795.00
2023-01-20T05:16:24.992Z,100801.00
2023-01-20T05:18:53.705Z,100800.00
2023-01-20T05:21:22.352Z,100797.00
2023-01-20T05:23:51.189Z,100800.00
2023-01-20T05:26:19.906Z,100809.00
2023-01-20T05:28:50.069Z,100810.00
2023-01-20T05:31:19.165Z,100812.00
2023-01-20T05:33:47.968Z,100809.00
2023-01-20T05:36:16.635Z,100808.00
2023-01-20T05:38:45.333Z,100817.00
2023-01-20T05:41:14.394Z,100806.00
2023-01-20T05:43:42.980Z,100822.00
2023-01-20T05:46:13.258Z,100815.00
2023-01-20T05:48:41.947Z,100814.00
2023-01-20T05:51:10.677Z,100823.00
2023-01-20T05:53:39.395Z,100829.00
2023-01-20T05:56:08.876Z,100823.00
2023-01-20T05:58:37.568Z,100825.00
2023-01-20T06:01:07.433Z,100823.00
2023-01-20T06:03:37.612Z,100821.00
2023-01-20T06:06:09.283Z,100825.00
2023-01-20T06:08:37.934Z,100823.00
2023-01-20T06:11:07.123Z,100821.00
2023-01-20T06:13:36.230Z,100817.00
2023-01-20T06:16:07.342Z,100816.00
2023-01-20T06:18:37.645Z,100813.00
2023-01-20T06:21:07.254Z,100821.00
2023-01-20T06:23:36.156Z,100813.00
2023-01-20T06:26:07.572Z,100818.00
2023-01-20T06:28:36.378Z,100826.00
2023-01-20T06:31:08.658Z,100824.00
2023-01-20T06:33:39.038Z,100821.00
2023-01-20T06:36:11.012Z,100831.00
2023-01-20T06:38:39.652Z,100829.00
2023-01-20T06:41:11.389Z,100835.00
2023-01-20T06:43:42.121Z,100830.00
2023-01-20T06:46:14.431Z,100826.00
2023-01-20T06:48:46.606Z,100832.00
2023-01-20T06:51:18.231Z,100823.00
2023-01-20T06:53:47.870Z,100823.00
2023-01-20T06:56:17.617Z,100822.00
2023-01-20T06:58:46.411Z,100824.00
2023-01-20T07:01:17.072Z,100826.00
2023-01-20T07:03:47.200Z,100822.00
2023-01-20T07:06:19.337Z,100820.00
2023-01-20T07:08:48.433Z,100820.00
2023-01-20T07:11:17.082Z,100823.00
2023-01-20T07:13:45.846Z,100838.00
2023-01-20T07:16:16.089Z,100834.00
2023-01-20T07:18:48.592Z,100822.00
2023-01-20T07:21:18.393Z,100826.00
2023-01-20T07:23:48.062Z,100824.00
2023-01-20T07:26:21.098Z,100824.00
2023-01-20T07:28:50.453Z,100813.00
2023-01-20T07:31:21.757Z,100821.00
2023-01-20T07:33:52.435Z,100823.00
2023-01-20T07:36:21.873Z,100831.00
2023-01-20T07:38:51.494Z,100839.00
2023-01-20T07:41:21.327Z,100850.00
2023-01-20T07:43:53.553Z,100859.00
2023-01-20T07:46:25.613Z,100852.00
2023-01-20T07:48:57.509Z,100862.00
2023-01-20T07:51:26.428Z,100858.00
2023-01-20T07:53:55.082Z,100857.00
2023-01-20T07:56:26.040Z,100869.00
2023-01-20T07:58:55.598Z,100860.00
2023-01-20T08:01:27.686Z,100865.00
2023-01-20T08:04:00.618Z,100857.00
2023-01-20T08:06:30.746Z,100857.00
2023-01-20T08:09:02.723Z,100869.00
2023-01-20T08:11:32.464Z,100869.00
2023-01-20T08:14:01.154Z,100873.00
2023-01-20T08:16:29.881Z,100872.00
2023-01-20T08:19:00.286Z,100879.00
2023-01-20T08:21:31.868Z,100875.00
2023-01-20T08:24:03.194Z,100871.00
2023-01-20T08:26:32.475Z,100872.00
2023-01-20T08:29:04.795Z,100875.00
2023-01-20T08:31:33.613Z,100881.00
2023-01-20T08:34:04.225Z,100892.00
2023-01-20T08:36:36.682Z,100888.00
2023-01-20T08:39:11.851Z,100892.00
2023-01-20T08:41:43.334Z,100890.00
2023-01-20T08:44:16.187Z,100886.00
2023-01-20T08:46:46.199Z,100881.00
2023-01-20T08:49:19.322Z,100887.00
2023-01-20T08:51:48.783Z,100874.00
2023-01-20T08:54:17.544Z,100863.00
2023-01-20T08:56:46.371Z,100853.00
2023-01-20T08:59:15.477Z,100848.00
2023-01-20T09:01:46.137Z,100847.00
2023-01-20T09:04:18.062Z,100849.00
2023-01-20T09:06:50.298Z,100846.00
2023-01-20T09:09:22.285Z,100839.00
2023-01-20T09:11:56.558Z,100854.00
2023-01-20T09:14:27.168Z,100857.00
2023-01-20T09:16:56.134Z,100864.00
2023-01-20T09:19:33.245Z,100874.00
2023-01-20T09:22:01.975Z,100882.00
2023-01-20T09:24:30.661Z,100875.00
2023-01-20T09:26:59.255Z,100882.00
2023-01-20T09:29:28.136Z,100875.00
2023-01-20T09:31:58.961Z,100873.00
2023-01-20T09:34:32.131Z,100887.00
2023-01-20T09:37:23.357Z,100867.00
2023-01-20T09:40:09.289Z,100863.00
2023-01-20T09:43:14.089Z,100856.00
2023-01-20T09:45:54.148Z,100858.00
2023-01-20T09:48:55.173Z,100839.00
2023-01-20T09:51:52.818Z,100858.00
2023-01-20T09:54:29.772Z,100859.00
2023-01-20T09:57:06.011Z,100858.00
2023-01-20T09:59:42.257Z,100885.00
2023-01-20T10:02:21.952Z,100880.00
2023-01-20T10:04:58.321Z,100878.00
2023-01-20T10:07:38.820Z,100874.00
2023-01-20T10:10:20.625Z,100866.00
2023-01-20T10:13:00.099Z,100880.00
2023-01-20T10:15:31.721Z,100885.00
2023-01-20T10:18:11.711Z,100893.00
2023-01-20T10:20:49.048Z,100899.00
2023-01-20T10:23:29.390Z,100891.00
2023-01-20T10:26:08.684Z,100904.00
2023-01-20T10:28:57.698Z,100897.00
2023-01-20T10:31:31.166Z,100907.00
2023-01-20T10:34:08.997Z,100903.00
2023-01-20T10:36:43.573Z,100913.00
2023-01-20T10:39:29.822Z,100901.00
2023-01-20T10:42:07.164Z,100898.00
2023-01-20T10:44:36.767Z,100896.00
2023-01-20T10:47:21.611Z,100907.00
2023-01-20T10:50:31.457Z,100915.00
2023-01-20T10:53:22.618Z,100908.00
2023-01-20T10:56:08.931Z,100914.00
2023-01-20T10:58:41.793Z,100912.00
2023-01-20T11:01:17.721Z,100912.00
2023-01-20T11:03:49.798Z,100913.00
2023-01-20T11:06:22.883Z,100913.00
2023-01-20T11:08:51.581Z,100938.00
2023-01-20T11:11:25.350Z,100936.00
2023-01-20T11:13:55.348Z,100937.00
2023-01-20T11:16:29.018Z,100954.00
2023-01-20T11:19:01.770Z,100953.00
2023-01-20T11:21:33.655Z,100971.00
2023-01-20T11:24:03.277Z,100968.00
2023-01-20T11:26:38.231Z,100959.00
2023-01-20T11:29:29.977Z,100967.00
2023-01-20T11:31:59.841Z,100963.00
2023-01-20T11:34:31.330Z,100957.00
2023-01-20T11:37:21.792Z,100965.00
2023-01-20T11:40:19.257Z,100957.00
2023-01-20T11:42:51.876Z,100961.00
2023-01-20T11:45:34.711Z,100964.00
2023-01-20T11:48:19.321Z,100976.00
2023-01-20T11:50:50.321Z,100974.00
2023-01-20T11:53:24.408Z,100976.00
2023-01-20T11:55:56.988Z,100974.00
2023-01-20T11:58:30.238Z,100973.00
2023-01-20T12:01:06.707Z,100978.00
2023-01-20T12:04:43.728Z,100970.00
2023-01-20T12:07:19.201Z,100969.00
2023-01-20T12:09:55.411Z,100974.00
2023-01-20T12:12:34.226Z,100981.00
2023-01-20T12:15:14.258Z,100974.00
2023-01-20T12:17:55.224Z,100984.00
2023-01-20T12:20:31.967Z,100983.00
2023-01-20T12:23:30.271Z,100972.00
2023-01-20T12:26:03.293Z,100980.00
2023-01-20T12:28:41.214Z,100977.00
2023-01-20T12:31:13.890Z,100986.00
2023-01-20T12:33:46.565Z,100992.00
2023-01-20T12:36:51.580Z,100991.00
2023-01-20T12:39:43.956Z,100990.00
2023-01-20T12:43:19.753Z,101004.00
2023-01-20T12:46:22.639Z,101008.00
2023-01-20T12:49:15.312Z,101015.00
2023-01-20T12:52:02.743Z,101015.00
2023-01-20T12:55:03.908Z,101024.00
2023-01-20T12:57:51.939Z,101023.00
2023-01-20T13:00:37.940Z,101029.00
2023-01-20T13:04:11.505Z,101025.00
2023-01-20T13:07:18.698Z,101023.00
2023-01-20T13:10:08.696Z,101020.00
2023-01-20T13:12:51.907Z,101035.00
2023-01-20T13:15:29.376Z,101040.00
2023-01-20T13:18:28.103Z,101053.00
2023-01-20T13:20:57.710Z,101053.00
2023-01-20T13:23:32.440Z,101053.00
2023-01-20T13:26:03.043Z,101061.00
2023-01-20T13:28:32.497Z,101055.00
2023-01-20T13:31:22.792Z,101053.00
2023-01-20T13:33:53.128Z,101051.00
2023-01-20T13:36:25.433Z,101060.00
2023-01-20T13:39:41.754Z,101044.00
2023-01-20T13:42:51.548Z,101052.00
2023-01-20T13:45:27.812Z,101049.00
2023-01-20T13:48:24.506Z,101043.00
2023-01-20T13:50:54.547Z,101043.00
2023-01-20T13:53:30.571Z,101053.00
2023-01-20T13:56:27.161Z,101053.00
2023-01-20T13:58:58.233Z,101051.00
2023-01-20T14:01:28.050Z,101049.00
2023-01-20T14:04:05.403Z,101052.00
2023-01-20T14:06:36.252Z,101054.00
2023-01-20T14:09:12.922Z,101052.00
2023-01-20T14:11:51.083Z,101056.00
2023-01-20T14:14:22.550Z,101066.00
2023-01-20T14:16:52.501Z,101063.00
2023-01-20T14:19:27.606Z,101062.00
2023-01-20T14:22:01.882Z,101065.00
2023-01-20T14:24:31.766Z,101076.00
2023-01-20T14:27:12.779Z,101070.00
2023-01-20T14:29:44.164Z,101073.00
2023-01-20T14:32:28.469Z,101083.00
2023-01-20T14:34:58.681Z,101088.00
2023-01-20T14:37:31.575Z,101091.00
2023-01-20T14:40:07.016Z,101101.00
2023-01-20T14:42:36.308Z,101106.00
2023-01-20T14:45:19.865Z,101118.00
2023-01-20T14:47:49.954Z,101127.00
2023-01-20T14:50:20.670Z,101111.00
2023-01-20T14:52:51.346Z,101118.00
2023-01-20T14:55:32.357Z,101125.00
2023-01-20T14:58:02.520Z,101134.00
2023-01-20T15:00:34.905Z,101133.00
2023-01-20T15:03:14.323Z,101128.00
2023-01-20T15:05:54.868Z,101131.00
2023-01-20T15:08:30.078Z,101130.00
2023-01-20T15:11:25.107Z,101138.00
2023-01-20T15:14:12.766Z,101143.00
2023-01-20T15:16:50.140Z,101144.00
2023-01-20T15:19:34.297Z,101157.00
2023-01-20T15:22:23.953Z,101172.00
2023-01-20T15:24:55.237Z,101181.00
2023-01-20T15:27:35.138Z,101180.00
2023-01-20T15:30:21.168Z,101176.00
2023-01-20T15:32:51.231Z,101191.00
2023-01-20T15:35:25.651Z,101187.00
2023-01-20T15:37:55.328Z,101205.00
2023-01-20T15:40:26.979Z,101216.00
2023-01-20T15:42:57.405Z,101225.00
2023-01-20T15:45:26.888Z,101226.00
2023-01-20T15:47:56.251Z,101227.00
2023-01-20T15:50:27.390Z,101241.00
2023-01-20T15:52:56.393Z,101235.00
2023-01-20T15:55:26.590Z,101252.00
2023-01-20T15:57:57.562Z,101253.00
2023-01-20T16:00:29.256Z,101263.00
2023-01-20T16:02:58.082Z,101275.00
2023-01-20T16:05:26.890Z,101278.00
2023-01-20T16:07:55.709Z,101278.00
2023-01-20T16:10:25.817Z,101300.00
2023-01-20T16:12:54.442Z,101297.00
2023-01-20T16:15:23.080Z,101302.00
2023-01-20T16:17:53.828Z,101310.00
2023-01-20T16:20:27.183Z,101315.00
2023-01-20T16:22:56.844Z,101320.00
2023-01-20T16:25:28.269Z,101319.00
2023-01-20T16:27:57.082Z,101322.00
2023-01-20T16:30:26.058Z,101320.00
2023-01-20T16:32:54.807Z,101310.00
2023-01-20T16:35:25.542Z,101314.00
2023-01-20T16:37:54.285Z,101323.00
2023-01-20T16:40:24.709Z,101327.00
2023-01-20T16:42:57.045Z,101325.00
2023-01-20T16:45:28.812Z,101342.00
2023-01-20T16:47:58.267Z,101346.00
2023-01-20T16:50:28.429Z,101350.00
2023-01-20T16:52:57.308Z,101361.00
2023-01-20T16:55:26.038Z,101367.00
2023-01-20T16:57:56.171Z,101374.00
2023-01-20T17:00:25.117Z,101359.00
2023-01-20T17:02:54.819Z,101375.00
2023-01-20T17:05:25.793Z,101386.00
2023-01-20T17:07:56.972Z,101393.00
2023-01-20T17:10:27.497Z,101391.00
2023-01-20T17:12:58.401Z,101408.00
2023-01-20T17:15:29.334Z,101402.00
2023-01-20T17:18:00.371Z,101412.00
2023-01-20T17:20:32.901Z,101411.00
2023-01-20T17:23:04.311Z,101404.00
2023-01-20T17:25:34.049Z,101405.00
2023-01-20T17:28:04.261Z,101399.00
2023-01-20T17:30:38.374Z,101406.00
2023-01-20T17:33:07.296Z,101417.00
2023-01-20T17:35:36.048Z,101424.00
2023-01-20T17:38:04.970Z,101422.00
2023-01-20T17:40:33.782Z,101424.00
2023-01-20T17:43:05.441Z,101436.00
2023-01-20T17:45:35.204Z,101444.00
2023-01-20T17:48:04.702Z,101456.00
2023-01-20T17:50:33.630Z,101463.00
2023-01-20T17:53:05.148Z,101464.00
2023-01-20T17:55:34.226Z,101462.00
2023-01-20T17:58:04.442Z,101460.00
2023-01-20T18:00:33.451Z,101470.00
2023-01-20T18:03:02.466Z,101470.00
2023-01-20T18:05:31.320Z,101478.00
2023-01-20T18:08:00.211Z,101483.00
2023-01-20T18:10:29.470Z,101478.00
2023-01-20T18:12:58.357Z,101484.00
2023-01-20T18:15:30.514Z,101492.00
2023-01-20T18:18:01.282Z,101508.00
2023-01-20T18:20:30.418Z,101512.00
2023-01-20T18:22:59.414Z,101531.00
2023-01-20T18:25:28.204Z,101522.00
2023-01-20T18:27:57.138Z,101512.00
2023-01-20T18:30:27.696Z,101525.00
2023-01-20T18:32:58.743Z,101514.00
2023-01-20T18:35:27.695Z,101514.00
2023-01-20T18:37:56.440Z,101521.00
2023-01-20T18:40:25.234Z,101515.00
2023-01-20T18:42:56.878Z,101508.00
2023-01-20T18:45:29.334Z,101520.00
2023-01-20T18:47:58.176Z,101535.00
2023-01-20T18:50:27.235Z,101563.00
2023-01-20T18:52:57.090Z,101574.00
2023-01-20T18:55:27.237Z,101588.00
2023-01-20T18:57:56.493Z,101597.00
2023-01-20T19:00:25.466Z,101606.00
2023-01-20T19:02:57.968Z,101604.00
2023-01-20T19:05:27.245Z,101598.00
2023-01-20T19:07:56.488Z,101595.00
2023-01-20T19:10:25.343Z,101600.00
2023-01-20T19:12:54.768Z,101608.00
2023-01-20T19:15:23.743Z,101615.00
2023-01-20T19:17:54.283Z,101620.00
2023-01-20T19:20:23.071Z,101623.00
2023-01-20T19:22:52.571Z,101625.00
2023-01-20T19:25:21.395Z,101646.00
2023-01-20T19:27:50.572Z,101657.00
2023-01-20T19:30:19.684Z,101672.00
2023-01-20T19:32:48.435Z,101680.00
2023-01-20T19:35:18.553Z,101692.00
2023-01-20T19:37:48.107Z,101702.00
2023-01-20T19:40:18.226Z,101708.00
2023-01-20T19:43:01.781Z,101713.00
2023-01-20T19:45:48.337Z,101717.00
2023-01-20T19:48:29.539Z,101714.00
2023-01-20T19:51:05.749Z,101726.00
2023-01-20T19:53:39.260Z,101729.00
2023-01-20T19:56:11.784Z,101724.00
2023-01-20T19:58:42.028Z,101734.00
2023-01-20T20:01:14.603Z,101719.00
2023-01-20T20:03:48.259Z,101732.00
2023-01-20T20:06:29.259Z,101738.00
2023-01-20T20:09:00.690Z,101733.00
2023-01-20T20:11:30.288Z,101728.00
2023-01-20T20:14:04.903Z,101732.00
2023-01-20T20:16:38.781Z,101730.00
2023-01-20T20:19:26.293Z,101741.00
2023-01-20T20:21:58.844Z,101720.00
2023-01-20T20:24:28.831Z,101732.00
2023-01-20T20:26:57.918Z,101732.00
2023-01-20T20:29:28.038Z,101750.00
2023-01-20T20:31:57.488Z,101759.00
2023-01-20T20:34:28.805Z,101750.00
2023-01-20T20:36:59.121Z,101764.00
2023-01-20T20:39:30.485Z,101767.00
2023-01-20T20:41:59.969Z,101777.00
2023-01-20T20:44:28.692Z,101786.00
2023-01-20T20:46:58.090Z,101785.00
2023-01-20T20:49:26.796Z,101789.00
2023-01-20T20:51:55.586Z,101778.00
2023-01-20T20:54:25.670Z,101781.00
2023-01-20T20:56:57.768Z,101791.00
2023-01-20T20:59:28.018Z,101791.00
2023-01-20T21:01:57.759Z,101813.00
2023-01-20T21:04:27.128Z,101803.00
2023-01-20T21:06:55.899Z,101800.00
2023-01-20T21:09:26.311Z,101811.00
2023-01-20T21:11:54.988Z,101823.00
2023-01-20T21:14:23.886Z,101815.00
2023-01-20T21:16:52.663Z,101812.00
2023-01-20T21:19:21.637Z,101826.00
2023-01-20T21:21:51.526Z,101824.00
2023-01-20T21:24:21.918Z,101826.00
2023-01-20T21:26:51.998Z,101825.00
2023-01-20T21:29:20.714Z,101839.00
2023-01-20T21:31:50.474Z,101845.00
2023-01-20T21:34:20.908Z,101841.00
2023-01-20T21:36:49.631Z,101865.00
2023-01-20T21:39:20.146Z,101869.00
2023-01-20T21:41:48.883Z,101874.00
2023-01-20T21:44:32.480Z,101874.00
2023-01-20T21:47:03.283Z,101889.00
2023-01-20T21:49:49.925Z,101882.00
2023-01-20T21:52:38.566Z,101880.00
2023-01-20T21:55:09.245Z,101891.00
2023-01-20T21:57:38.780Z,101903.00
2023-01-20T22:00:14.467Z,101912.00
2023-01-20T22:02:45.841Z,101916.00
2023-01-20T22:05:15.609Z,101939.00
2023-01-20T22:07:44.275Z,101944.00
2023-01-20T22:10:13.977Z,101948.00
2023-01-20T22:12:43.045Z,101959.00
2023-01-20T22:15:13.881Z,101963.00
2023-01-20T22:17:42.956Z,101979.00
2023-01-20T22:20:14.440Z,101988.00
2023-01-20T22:22:43.350Z,101992.00
2023-01-20T22:25:12.047Z,101997.00
2023-01-20T22:27:40.965Z,101996.00
2023-01-20T22:30:13.073Z,101993.00
2023-01-20T22:32:41.685Z,101987.00
2023-01-20T22:35:10.730Z,102007.00
2023-01-20T22:37:39.383Z,101992.00
2023-01-20T22:40:09.322Z,102001.00
2023-01-20T22:42:38.015Z,102011.00
2023-01-20T22:45:08.254Z,102006.00
2023-01-20T22:47:38.492Z,102016.00
2023-01-20T22:50:08.041Z,102030.00
2023-01-20T22:52:36.685Z,102016.00
2023-01-20T22:55:06.154Z,102009.00
2023-01-20T22:57:34.793Z,102007.00
2023-01-20T23:00:04.116Z,102004.00
2023-01-20T23:02:33.186Z,102012.00
2023-01-20T23:05:03.343Z,102019.00
2023-01-20T23:07:32.134Z,102030.00
2023-01-20T23:10:00.745Z,102024.00
2023-01-20T23:12:29.350Z,102036.00
2023-01-20T23:15:01.059Z,102049.00
2023-01-20T23:17:33.847Z,102056.00
2023-01-20T23:20:03.935Z,102049.00
2023-01-20T23:22:32.749Z,102052.00
2023-01-20T23:25:01.584Z,102048.00
2023-01-20T23:27:31.727Z,102046.00
2023-01-20T23:30:00.821Z,102057.00
2023-01-20T23:32:29.636Z,102071.00
2023-01-20T23:34:58.512Z,102079.00
2023-01-20T23:37:28.541Z,102082.00
2023-01-20T23:39:57.280Z,102074.00
2023-01-20T23:42:25.946Z,102099.00
2023-01-20T23:44:56.626Z,102107.00
2023-01-20T23:47:25.337Z,102134.00
2023-01-20T23:49:55.547Z,102131.00
2023-01-20T23:52:26.076Z,102122.00
2023-01-20T23:54:56.161Z,102129.00
2023-01-20T23:57:25.097Z,102134.00
2023-01-20T23:59:53.812Z,102142.00
